sensor_id;sensor_type;location;lat;lon;timestamp;P1;durP1;ratioP1;P2;durP2;ratioP2
12308;SDS011;6217;48.150;17.142;2022-07-23T00:02:42;9.73;;;6.97;;
12308;SDS011;6217;48.150;17.142;2022-07-23T00:06:49;8.35;;;7.03;;
12308;SDS011;6217;48.150;17.142;2022-07-23T00:10:55;7.15;;;6.45;;
12308;SDS011;6217;48.150;17.142;2022-07-23T00:15:02;8.05;;;6.68;;
12308;SDS011;6217;48.150;17.142;2022-07-23T00:19:10;7.75;;;6.95;;
12308;SDS011;6217;48.150;17.142;2022-07-23T00:23:16;7.75;;;6.55;;
12308;SDS011;6217;48.150;17.142;2022-07-23T00:27:23;12.63;;;10.80;;
12308;SDS011;6217;48.150;17.142;2022-07-23T00:31:29;9.15;;;8.23;;
12308;SDS011;6217;48.150;17.142;2022-07-23T00:35:37;17.13;;;11.27;;
12308;SDS011;6217;48.150;17.142;2022-07-23T00:39:46;20.67;;;18.58;;
12308;SDS011;6217;48.150;17.142;2022-07-23T00:43:52;19.58;;;17.58;;
12308;SDS011;6217;48.150;17.142;2022-07-23T00:47:59;18.50;;;16.80;;
12308;SDS011;6217;48.150;17.142;2022-07-23T00:52:05;18.08;;;16.25;;
12308;SDS011;6217;48.150;17.142;2022-07-23T00:56:12;13.52;;;11.48;;
12308;SDS011;6217;48.150;17.142;2022-07-23T01:00:18;10.82;;;9.73;;
12308;SDS011;6217;48.150;17.142;2022-07-23T01:04:24;8.15;;;7.35;;
12308;SDS011;6217;48.150;17.142;2022-07-23T01:08:30;7.60;;;6.97;;
12308;SDS011;6217;48.150;17.142;2022-07-23T01:12:37;6.72;;;6.03;;
12308;SDS011;6217;48.150;17.142;2022-07-23T01:16:43;5.75;;;5.35;;
12308;SDS011;6217;48.150;17.142;2022-07-23T01:20:52;7.00;;;6.07;;
12308;SDS011;6217;48.150;17.142;2022-07-23T01:24:58;6.13;;;5.40;;
12308;SDS011;6217;48.150;17.142;2022-07-23T01:29:07;7.45;;;5.00;;
12308;SDS011;6217;48.150;17.142;2022-07-23T01:33:14;6.18;;;4.45;;
12308;SDS011;6217;48.150;17.142;2022-07-23T01:37:20;7.35;;;5.03;;
12308;SDS011;6217;48.150;17.142;2022-07-23T01:41:28;6.47;;;5.78;;
12308;SDS011;6217;48.150;17.142;2022-07-23T01:45:34;7.45;;;5.82;;
12308;SDS011;6217;48.150;17.142;2022-07-23T01:49:40;7.18;;;5.28;;
12308;SDS011;6217;48.150;17.142;2022-07-23T01:54:07;7.05;;;6.47;;
12308;SDS011;6217;48.150;17.142;2022-07-23T01:58:14;8.40;;;7.60;;
12308;SDS011;6217;48.150;17.142;2022-07-23T02:02:21;8.45;;;7.75;;
12308;SDS011;6217;48.150;17.142;2022-07-23T02:06:27;8.48;;;6.15;;
12308;SDS011;6217;48.150;17.142;2022-07-23T02:10:33;6.95;;;6.45;;
12308;SDS011;6217;48.150;17.142;2022-07-23T02:14:42;7.57;;;6.88;;
12308;SDS011;6217;48.150;17.142;2022-07-23T02:18:49;7.60;;;6.80;;
12308;SDS011;6217;48.150;17.142;2022-07-23T02:22:55;7.80;;;6.68;;
12308;SDS011;6217;48.150;17.142;2022-07-23T02:27:01;8.90;;;5.90;;
12308;SDS011;6217;48.150;17.142;2022-07-23T02:31:08;7.55;;;6.90;;
12308;SDS011;6217;48.150;17.142;2022-07-23T02:35:14;15.02;;;10.15;;
12308;SDS011;6217;48.150;17.142;2022-07-23T02:39:20;12.55;;;9.23;;
12308;SDS011;6217;48.150;17.142;2022-07-23T02:43:26;10.63;;;9.82;;
12308;SDS011;6217;48.150;17.142;2022-07-23T02:47:32;6.72;;;5.88;;
12308;SDS011;6217;48.150;17.142;2022-07-23T02:51:40;9.05;;;8.15;;
12308;SDS011;6217;48.150;17.142;2022-07-23T02:55:47;10.68;;;9.68;;
12308;SDS011;6217;48.150;17.142;2022-07-23T02:59:54;7.00;;;6.40;;
12308;SDS011;6217;48.150;17.142;2022-07-23T03:04:01;6.95;;;6.35;;
12308;SDS011;6217;48.150;17.142;2022-07-23T03:08:07;7.78;;;6.97;;
12308;SDS011;6217;48.150;17.142;2022-07-23T03:12:16;7.57;;;6.95;;
12308;SDS011;6217;48.150;17.142;2022-07-23T03:16:22;9.02;;;8.15;;
12308;SDS011;6217;48.150;17.142;2022-07-23T03:20:29;7.72;;;6.43;;
12308;SDS011;6217;48.150;17.142;2022-07-23T03:24:35;11.80;;;9.18;;
12308;SDS011;6217;48.150;17.142;2022-07-23T03:29:03;7.80;;;7.10;;
12308;SDS011;6217;48.150;17.142;2022-07-23T03:33:11;9.07;;;8.23;;
12308;SDS011;6217;48.150;17.142;2022-07-23T03:37:21;7.78;;;6.75;;
12308;SDS011;6217;48.150;17.142;2022-07-23T03:41:28;8.02;;;6.10;;
12308;SDS011;6217;48.150;17.142;2022-07-23T03:45:35;7.40;;;6.10;;
12308;SDS011;6217;48.150;17.142;2022-07-23T03:49:41;12.13;;;5.90;;
12308;SDS011;6217;48.150;17.142;2022-07-23T03:53:48;7.55;;;6.03;;
12308;SDS011;6217;48.150;17.142;2022-07-23T03:57:55;11.07;;;5.70;;
12308;SDS011;6217;48.150;17.142;2022-07-23T04:02:02;5.75;;;5.15;;
12308;SDS011;6217;48.150;17.142;2022-07-23T04:06:08;6.78;;;5.10;;
12308;SDS011;6217;48.150;17.142;2022-07-23T04:10:16;7.53;;;4.90;;
12308;SDS011;6217;48.150;17.142;2022-07-23T04:14:23;5.18;;;4.65;;
12308;SDS011;6217;48.150;17.142;2022-07-23T04:18:29;6.03;;;4.43;;
12308;SDS011;6217;48.150;17.142;2022-07-23T04:22:44;4.97;;;4.28;;
12308;SDS011;6217;48.150;17.142;2022-07-23T04:26:50;6.22;;;5.03;;
12308;SDS011;6217;48.150;17.142;2022-07-23T04:30:57;4.78;;;4.10;;
12308;SDS011;6217;48.150;17.142;2022-07-23T04:35:03;6.40;;;5.47;;
12308;SDS011;6217;48.150;17.142;2022-07-23T04:39:10;8.20;;;4.57;;
12308;SDS011;6217;48.150;17.142;2022-07-23T04:43:16;7.13;;;4.78;;
12308;SDS011;6217;48.150;17.142;2022-07-23T04:47:28;5.90;;;5.38;;
12308;SDS011;6217;48.150;17.142;2022-07-23T04:51:36;5.78;;;5.15;;
12308;SDS011;6217;48.150;17.142;2022-07-23T04:55:42;6.03;;;5.53;;
12308;SDS011;6217;48.150;17.142;2022-07-23T04:59:48;5.80;;;4.88;;
12308;SDS011;6217;48.150;17.142;2022-07-23T05:03:55;6.00;;;5.57;;
12308;SDS011;6217;48.150;17.142;2022-07-23T05:08:04;9.15;;;7.80;;
12308;SDS011;6217;48.150;17.142;2022-07-23T05:12:10;9.73;;;8.82;;
12308;SDS011;6217;48.150;17.142;2022-07-23T05:16:17;8.90;;;8.00;;
12308;SDS011;6217;48.150;17.142;2022-07-23T05:20:23;9.77;;;8.98;;
12308;SDS011;6217;48.150;17.142;2022-07-23T05:24:30;15.45;;;13.95;;
12308;SDS011;6217;48.150;17.142;2022-07-23T05:28:36;15.32;;;13.85;;
12308;SDS011;6217;48.150;17.142;2022-07-23T05:32:42;13.50;;;12.45;;
12308;SDS011;6217;48.150;17.142;2022-07-23T05:36:55;12.93;;;11.32;;
12308;SDS011;6217;48.150;17.142;2022-07-23T05:41:02;11.07;;;10.10;;
12308;SDS011;6217;48.150;17.142;2022-07-23T05:45:10;13.93;;;10.57;;
12308;SDS011;6217;48.150;17.142;2022-07-23T05:49:20;12.13;;;8.27;;
12308;SDS011;6217;48.150;17.142;2022-07-23T05:53:45;9.77;;;6.43;;
12308;SDS011;6217;48.150;17.142;2022-07-23T05:57:59;6.28;;;5.72;;
12308;SDS011;6217;48.150;17.142;2022-07-23T06:02:06;7.15;;;4.28;;
12308;SDS011;6217;48.150;17.142;2022-07-23T06:06:13;9.88;;;4.85;;
12308;SDS011;6217;48.150;17.142;2022-07-23T06:10:20;5.22;;;4.45;;
12308;SDS011;6217;48.150;17.142;2022-07-23T06:14:26;6.80;;;4.70;;
12308;SDS011;6217;48.150;17.142;2022-07-23T06:18:36;5.93;;;4.63;;
12308;SDS011;6217;48.150;17.142;2022-07-23T06:22:43;6.05;;;5.10;;
12308;SDS011;6217;48.150;17.142;2022-07-23T06:26:51;5.35;;;4.65;;
12308;SDS011;6217;48.150;17.142;2022-07-23T06:30:57;10.85;;;5.07;;
12308;SDS011;6217;48.150;17.142;2022-07-23T06:35:03;7.30;;;5.72;;
12308;SDS011;6217;48.150;17.142;2022-07-23T06:39:10;7.43;;;4.90;;
12308;SDS011;6217;48.150;17.142;2022-07-23T06:43:16;7.93;;;5.60;;
12308;SDS011;6217;48.150;17.142;2022-07-23T06:47:25;6.28;;;5.68;;
12308;SDS011;6217;48.150;17.142;2022-07-23T06:51:31;7.03;;;5.63;;
12308;SDS011;6217;48.150;17.142;2022-07-23T06:55:40;5.85;;;5.03;;
12308;SDS011;6217;48.150;17.142;2022-07-23T06:59:46;6.60;;;5.60;;
12308;SDS011;6217;48.150;17.142;2022-07-23T07:03:53;6.75;;;6.15;;
12308;SDS011;6217;48.150;17.142;2022-07-23T07:08:00;7.93;;;7.10;;
12308;SDS011;6217;48.150;17.142;2022-07-23T07:12:06;8.15;;;5.82;;
12308;SDS011;6217;48.150;17.142;2022-07-23T07:16:13;7.28;;;6.53;;
12308;SDS011;6217;48.150;17.142;2022-07-23T07:20:19;9.13;;;6.05;;
12308;SDS011;6217;48.150;17.142;2022-07-23T07:24:25;7.03;;;5.20;;
12308;SDS011;6217;48.150;17.142;2022-07-23T07:28:31;5.93;;;5.43;;
12308;SDS011;6217;48.150;17.142;2022-07-23T07:32:37;6.30;;;5.78;;
12308;SDS011;6217;48.150;17.142;2022-07-23T07:36:44;10.48;;;5.22;;
12308;SDS011;6217;48.150;17.142;2022-07-23T07:40:50;6.55;;;5.75;;
12308;SDS011;6217;48.150;17.142;2022-07-23T07:44:56;7.38;;;6.43;;
12308;SDS011;6217;48.150;17.142;2022-07-23T07:49:03;6.25;;;4.90;;
12308;SDS011;6217;48.150;17.142;2022-07-23T07:53:09;6.65;;;5.28;;
12308;SDS011;6217;48.150;17.142;2022-07-23T07:57:15;6.53;;;5.82;;
12308;SDS011;6217;48.150;17.142;2022-07-23T08:01:21;7.13;;;5.47;;
12308;SDS011;6217;48.150;17.142;2022-07-23T08:05:28;6.70;;;6.07;;
12308;SDS011;6217;48.150;17.142;2022-07-23T08:09:35;9.40;;;5.40;;
12308;SDS011;6217;48.150;17.142;2022-07-23T08:13:42;8.23;;;4.75;;
12308;SDS011;6217;48.150;17.142;2022-07-23T08:17:49;6.28;;;5.60;;
12308;SDS011;6217;48.150;17.142;2022-07-23T08:21:56;6.30;;;4.93;;
12308;SDS011;6217;48.150;17.142;2022-07-23T08:26:02;9.38;;;5.18;;
12308;SDS011;6217;48.150;17.142;2022-07-23T08:30:08;7.45;;;5.63;;
12308;SDS011;6217;48.150;17.142;2022-07-23T08:34:15;5.80;;;5.25;;
12308;SDS011;6217;48.150;17.142;2022-07-23T08:38:21;7.80;;;7.00;;
12308;SDS011;6217;48.150;17.142;2022-07-23T08:42:28;5.95;;;5.47;;
12308;SDS011;6217;48.150;17.142;2022-07-23T08:46:34;7.30;;;5.40;;
12308;SDS011;6217;48.150;17.142;2022-07-23T08:50:42;10.82;;;5.80;;
12308;SDS011;6217;48.150;17.142;2022-07-23T08:58:58;6.75;;;6.15;;
12308;SDS011;6217;48.150;17.142;2022-07-23T09:03:04;6.10;;;5.63;;
12308;SDS011;6217;48.150;17.142;2022-07-23T09:07:10;8.27;;;5.85;;
12308;SDS011;6217;48.150;17.142;2022-07-23T09:11:17;12.20;;;6.30;;
12308;SDS011;6217;48.150;17.142;2022-07-23T09:15:24;8.80;;;6.20;;
12308;SDS011;6217;48.150;17.142;2022-07-23T09:19:30;6.30;;;5.80;;
12308;SDS011;6217;48.150;17.142;2022-07-23T09:23:37;6.40;;;5.70;;
12308;SDS011;6217;48.150;17.142;2022-07-23T09:32:07;4.67;;;4.30;;
12308;SDS011;6217;48.150;17.142;2022-07-23T09:36:28;4.88;;;4.43;;
12308;SDS011;6217;48.150;17.142;2022-07-23T09:40:35;6.78;;;4.78;;
12308;SDS011;6217;48.150;17.142;2022-07-23T09:44:42;5.70;;;3.90;;
12308;SDS011;6217;48.150;17.142;2022-07-23T09:48:51;6.43;;;4.43;;
12308;SDS011;6217;48.150;17.142;2022-07-23T09:53:04;7.40;;;4.32;;
12308;SDS011;6217;48.150;17.142;2022-07-23T09:57:11;6.47;;;3.72;;
12308;SDS011;6217;48.150;17.142;2022-07-23T10:01:22;4.55;;;3.38;;
12308;SDS011;6217;48.150;17.142;2022-07-23T10:05:28;5.65;;;3.58;;
12308;SDS011;6217;48.150;17.142;2022-07-23T10:10:11;8.32;;;3.88;;
12308;SDS011;6217;48.150;17.142;2022-07-23T10:14:38;4.70;;;4.25;;
12308;SDS011;6217;48.150;17.142;2022-07-23T10:18:47;4.22;;;3.28;;
12308;SDS011;6217;48.150;17.142;2022-07-23T10:31:34;4.80;;;4.47;;
12308;SDS011;6217;48.150;17.142;2022-07-23T10:35:59;7.15;;;4.93;;
12308;SDS011;6217;48.150;17.142;2022-07-23T10:44:22;6.55;;;4.80;;
12308;SDS011;6217;48.150;17.142;2022-07-23T10:48:29;5.85;;;3.90;;
12308;SDS011;6217;48.150;17.142;2022-07-23T10:52:35;5.00;;;3.78;;
12308;SDS011;6217;48.150;17.142;2022-07-23T11:01:31;10.48;;;4.20;;
12308;SDS011;6217;48.150;17.142;2022-07-23T11:05:43;5.70;;;4.28;;
12308;SDS011;6217;48.150;17.142;2022-07-23T11:09:51;6.78;;;4.65;;
12308;SDS011;6217;48.150;17.142;2022-07-23T11:13:59;5.03;;;4.53;;
12308;SDS011;6217;48.150;17.142;2022-07-23T11:18:05;4.95;;;3.97;;
12308;SDS011;6217;48.150;17.142;2022-07-23T11:22:11;5.78;;;4.00;;
12308;SDS011;6217;48.150;17.142;2022-07-23T11:26:48;4.22;;;3.83;;
12308;SDS011;6217;48.150;17.142;2022-07-23T11:30:58;7.53;;;5.10;;
12308;SDS011;6217;48.150;17.142;2022-07-23T11:35:24;4.50;;;3.75;;
12308;SDS011;6217;48.150;17.142;2022-07-23T11:39:33;2.97;;;2.78;;
12308;SDS011;6217;48.150;17.142;2022-07-23T11:43:40;4.03;;;3.20;;
12308;SDS011;6217;48.150;17.142;2022-07-23T11:47:46;3.08;;;2.85;;
12308;SDS011;6217;48.150;17.142;2022-07-23T11:52:12;2.90;;;2.70;;
12308;SDS011;6217;48.150;17.142;2022-07-23T11:56:19;2.75;;;2.55;;
12308;SDS011;6217;48.150;17.142;2022-07-23T12:00:27;2.13;;;1.92;;
12308;SDS011;6217;48.150;17.142;2022-07-23T12:04:42;2.97;;;2.13;;
12308;SDS011;6217;48.150;17.142;2022-07-23T12:08:50;3.33;;;2.30;;
12308;SDS011;6217;48.150;17.142;2022-07-23T12:13:00;2.53;;;2.00;;
12308;SDS011;6217;48.150;17.142;2022-07-23T12:17:12;2.95;;;2.10;;
12308;SDS011;6217;48.150;17.142;2022-07-23T12:21:18;5.07;;;2.25;;
12308;SDS011;6217;48.150;17.142;2022-07-23T12:25:33;2.50;;;2.30;;
12308;SDS011;6217;48.150;17.142;2022-07-23T12:29:44;3.10;;;1.95;;
12308;SDS011;6217;48.150;17.142;2022-07-23T12:33:51;2.40;;;2.20;;
12308;SDS011;6217;48.150;17.142;2022-07-23T12:38:00;3.00;;;1.70;;
12308;SDS011;6217;48.150;17.142;2022-07-23T12:42:11;2.28;;;1.58;;
12308;SDS011;6217;48.150;17.142;2022-07-23T12:46:18;1.50;;;1.40;;
12308;SDS011;6217;48.150;17.142;2022-07-23T12:50:39;2.35;;;1.67;;
12308;SDS011;6217;48.150;17.142;2022-07-23T12:54:59;2.67;;;1.48;;
12308;SDS011;6217;48.150;17.142;2022-07-23T12:59:06;10.13;;;2.00;;
12308;SDS011;6217;48.150;17.142;2022-07-23T13:03:25;2.03;;;1.83;;
12308;SDS011;6217;48.150;17.142;2022-07-23T13:07:34;2.20;;;2.00;;
12308;SDS011;6217;48.150;17.142;2022-07-23T13:11:41;16.75;;;2.33;;
12308;SDS011;6217;48.150;17.142;2022-07-23T13:15:49;6.45;;;2.08;;
12308;SDS011;6217;48.150;17.142;2022-07-23T13:19:56;4.47;;;2.90;;
12308;SDS011;6217;48.150;17.142;2022-07-23T13:24:02;3.25;;;2.20;;
12308;SDS011;6217;48.150;17.142;2022-07-23T13:28:09;4.43;;;2.88;;
12308;SDS011;6217;48.150;17.142;2022-07-23T13:32:15;3.88;;;3.40;;
12308;SDS011;6217;48.150;17.142;2022-07-23T13:36:21;17.40;;;3.97;;
12308;SDS011;6217;48.150;17.142;2022-07-23T13:40:28;5.38;;;4.38;;
12308;SDS011;6217;48.150;17.142;2022-07-23T13:44:34;7.47;;;4.40;;
12308;SDS011;6217;48.150;17.142;2022-07-23T13:48:41;6.68;;;4.80;;
12308;SDS011;6217;48.150;17.142;2022-07-23T13:52:47;10.43;;;6.70;;
12308;SDS011;6217;48.150;17.142;2022-07-23T13:56:53;4.95;;;4.55;;
12308;SDS011;6217;48.150;17.142;2022-07-23T14:00:59;8.00;;;4.68;;
12308;SDS011;6217;48.150;17.142;2022-07-23T14:05:06;5.10;;;4.60;;
12308;SDS011;6217;48.150;17.142;2022-07-23T14:09:15;6.20;;;4.45;;
12308;SDS011;6217;48.150;17.142;2022-07-23T14:13:21;5.15;;;3.88;;
12308;SDS011;6217;48.150;17.142;2022-07-23T14:17:27;5.72;;;4.43;;
12308;SDS011;6217;48.150;17.142;2022-07-23T14:21:33;5.88;;;4.18;;
12308;SDS011;6217;48.150;17.142;2022-07-23T14:25:39;8.35;;;3.97;;
12308;SDS011;6217;48.150;17.142;2022-07-23T14:29:46;9.77;;;3.95;;
12308;SDS011;6217;48.150;17.142;2022-07-23T14:33:52;6.68;;;3.40;;
12308;SDS011;6217;48.150;17.142;2022-07-23T14:37:58;4.50;;;3.05;;
12308;SDS011;6217;48.150;17.142;2022-07-23T14:42:05;5.10;;;3.35;;
12308;SDS011;6217;48.150;17.142;2022-07-23T14:46:12;3.60;;;3.30;;
12308;SDS011;6217;48.150;17.142;2022-07-23T14:50:18;6.90;;;3.50;;
12308;SDS011;6217;48.150;17.142;2022-07-23T14:54:25;6.78;;;3.50;;
12308;SDS011;6217;48.150;17.142;2022-07-23T14:58:32;8.00;;;3.40;;
12308;SDS011;6217;48.150;17.142;2022-07-23T15:02:38;3.10;;;2.90;;
12308;SDS011;6217;48.150;17.142;2022-07-23T15:06:44;3.50;;;3.30;;
12308;SDS011;6217;48.150;17.142;2022-07-23T15:10:51;3.78;;;2.88;;
12308;SDS011;6217;48.150;17.142;2022-07-23T15:14:57;3.65;;;3.25;;
12308;SDS011;6217;48.150;17.142;2022-07-23T15:19:03;2.97;;;2.58;;
12308;SDS011;6217;48.150;17.142;2022-07-23T15:23:10;2.78;;;2.50;;
12308;SDS011;6217;48.150;17.142;2022-07-23T15:27:16;4.18;;;2.83;;
12308;SDS011;6217;48.150;17.142;2022-07-23T15:31:23;2.80;;;2.60;;
12308;SDS011;6217;48.150;17.142;2022-07-23T15:35:30;6.43;;;2.78;;
12308;SDS011;6217;48.150;17.142;2022-07-23T15:39:36;3.83;;;2.45;;
12308;SDS011;6217;48.150;17.142;2022-07-23T15:43:42;5.00;;;2.28;;
12308;SDS011;6217;48.150;17.142;2022-07-23T15:47:48;2.30;;;1.92;;
12308;SDS011;6217;48.150;17.142;2022-07-23T15:51:55;3.88;;;2.30;;
12308;SDS011;6217;48.150;17.142;2022-07-23T15:56:02;5.13;;;2.35;;
12308;SDS011;6217;48.150;17.142;2022-07-23T16:00:11;2.53;;;2.20;;
12308;SDS011;6217;48.150;17.142;2022-07-23T16:04:17;2.72;;;2.22;;
12308;SDS011;6217;48.150;17.142;2022-07-23T16:08:23;3.63;;;1.98;;
12308;SDS011;6217;48.150;17.142;2022-07-23T16:12:29;1.88;;;1.65;;
12308;SDS011;6217;48.150;17.142;2022-07-23T16:16:36;2.17;;;1.70;;
12308;SDS011;6217;48.150;17.142;2022-07-23T16:20:42;5.18;;;1.50;;
12308;SDS011;6217;48.150;17.142;2022-07-23T16:24:48;3.80;;;1.70;;
12308;SDS011;6217;48.150;17.142;2022-07-23T16:28:55;1.60;;;1.50;;
12308;SDS011;6217;48.150;17.142;2022-07-23T16:33:01;3.40;;;1.38;;
12308;SDS011;6217;48.150;17.142;2022-07-23T16:37:08;3.28;;;1.83;;
12308;SDS011;6217;48.150;17.142;2022-07-23T16:41:15;3.38;;;1.75;;
12308;SDS011;6217;48.150;17.142;2022-07-23T16:45:21;2.53;;;1.30;;
12308;SDS011;6217;48.150;17.142;2022-07-23T16:49:27;1.45;;;1.35;;
12308;SDS011;6217;48.150;17.142;2022-07-23T16:53:34;1.90;;;1.60;;
12308;SDS011;6217;48.150;17.142;2022-07-23T16:57:41;2.80;;;1.27;;
12308;SDS011;6217;48.150;17.142;2022-07-23T17:01:48;4.55;;;1.52;;
12308;SDS011;6217;48.150;17.142;2022-07-23T17:05:54;3.70;;;1.50;;
12308;SDS011;6217;48.150;17.142;2022-07-23T17:10:02;1.88;;;1.13;;
12308;SDS011;6217;48.150;17.142;2022-07-23T17:18:17;1.45;;;1.33;;
12308;SDS011;6217;48.150;17.142;2022-07-23T17:22:23;5.00;;;1.40;;
12308;SDS011;6217;48.150;17.142;2022-07-23T17:26:29;2.53;;;1.65;;
12308;SDS011;6217;48.150;17.142;2022-07-23T17:30:38;3.28;;;1.50;;
12308;SDS011;6217;48.150;17.142;2022-07-23T17:34:44;3.65;;;1.98;;
12308;SDS011;6217;48.150;17.142;2022-07-23T17:38:52;2.40;;;1.63;;
12308;SDS011;6217;48.150;17.142;2022-07-23T17:42:58;2.55;;;2.08;;
12308;SDS011;6217;48.150;17.142;2022-07-23T17:47:05;3.15;;;2.15;;
12308;SDS011;6217;48.150;17.142;2022-07-23T17:51:11;2.08;;;1.80;;
12308;SDS011;6217;48.150;17.142;2022-07-23T17:55:18;7.40;;;1.98;;
12308;SDS011;6217;48.150;17.142;2022-07-23T17:59:26;3.28;;;2.25;;
12308;SDS011;6217;48.150;17.142;2022-07-23T18:03:32;2.38;;;2.10;;
12308;SDS011;6217;48.150;17.142;2022-07-23T18:07:38;7.68;;;2.13;;
12308;SDS011;6217;48.150;17.142;2022-07-23T18:11:45;4.53;;;2.42;;
12308;SDS011;6217;48.150;17.142;2022-07-23T18:15:51;2.03;;;1.83;;
12308;SDS011;6217;48.150;17.142;2022-07-23T18:19:57;3.05;;;1.95;;
12308;SDS011;6217;48.150;17.142;2022-07-23T18:24:04;3.95;;;2.30;;
12308;SDS011;6217;48.150;17.142;2022-07-23T18:28:11;5.38;;;2.50;;
12308;SDS011;6217;48.150;17.142;2022-07-23T18:32:17;3.88;;;2.97;;
12308;SDS011;6217;48.150;17.142;2022-07-23T18:36:23;3.67;;;2.30;;
12308;SDS011;6217;48.150;17.142;2022-07-23T18:40:29;2.60;;;2.00;;
12308;SDS011;6217;48.150;17.142;2022-07-23T18:44:36;12.88;;;2.72;;
12308;SDS011;6217;48.150;17.142;2022-07-23T18:48:42;3.25;;;2.70;;
12308;SDS011;6217;48.150;17.142;2022-07-23T18:52:49;5.93;;;2.42;;
12308;SDS011;6217;48.150;17.142;2022-07-23T18:56:55;5.78;;;2.83;;
12308;SDS011;6217;48.150;17.142;2022-07-23T19:01:01;4.60;;;2.30;;
12308;SDS011;6217;48.150;17.142;2022-07-23T19:05:08;4.28;;;2.60;;
12308;SDS011;6217;48.150;17.142;2022-07-23T19:09:15;3.35;;;2.60;;
12308;SDS011;6217;48.150;17.142;2022-07-23T19:13:21;3.30;;;2.30;;
12308;SDS011;6217;48.150;17.142;2022-07-23T19:17:27;7.88;;;2.70;;
12308;SDS011;6217;48.150;17.142;2022-07-23T19:21:33;4.18;;;2.45;;
12308;SDS011;6217;48.150;17.142;2022-07-23T19:25:40;4.38;;;3.60;;
12308;SDS011;6217;48.150;17.142;2022-07-23T19:29:46;3.33;;;3.03;;
12308;SDS011;6217;48.150;17.142;2022-07-23T19:33:52;3.95;;;2.90;;
12308;SDS011;6217;48.150;17.142;2022-07-23T19:37:58;2.80;;;2.30;;
12308;SDS011;6217;48.150;17.142;2022-07-23T19:42:05;8.20;;;2.55;;
12308;SDS011;6217;48.150;17.142;2022-07-23T19:46:11;5.75;;;2.42;;
12308;SDS011;6217;48.150;17.142;2022-07-23T19:50:17;4.93;;;2.28;;
12308;SDS011;6217;48.150;17.142;2022-07-23T19:54:24;6.60;;;2.30;;
12308;SDS011;6217;48.150;17.142;2022-07-23T19:58:34;4.47;;;2.10;;
12308;SDS011;6217;48.150;17.142;2022-07-23T20:02:40;2.22;;;1.95;;
12308;SDS011;6217;48.150;17.142;2022-07-23T20:06:46;2.08;;;1.88;;
12308;SDS011;6217;48.150;17.142;2022-07-23T20:10:52;3.10;;;2.70;;
12308;SDS011;6217;48.150;17.142;2022-07-23T20:14:59;3.78;;;2.20;;
12308;SDS011;6217;48.150;17.142;2022-07-23T20:19:05;5.68;;;2.75;;
12308;SDS011;6217;48.150;17.142;2022-07-23T20:23:11;13.77;;;2.72;;
12308;SDS011;6217;48.150;17.142;2022-07-23T20:27:17;3.38;;;2.95;;
12308;SDS011;6217;48.150;17.142;2022-07-23T20:31:24;4.78;;;3.70;;
12308;SDS011;6217;48.150;17.142;2022-07-23T20:35:30;5.15;;;3.55;;
12308;SDS011;6217;48.150;17.142;2022-07-23T20:39:36;5.72;;;3.70;;
12308;SDS011;6217;48.150;17.142;2022-07-23T20:43:42;9.27;;;4.30;;
12308;SDS011;6217;48.150;17.142;2022-07-23T20:47:49;6.05;;;3.40;;
12308;SDS011;6217;48.150;17.142;2022-07-23T20:51:57;10.18;;;4.28;;
12308;SDS011;6217;48.150;17.142;2022-07-23T20:56:04;3.60;;;3.00;;
12308;SDS011;6217;48.150;17.142;2022-07-23T21:00:11;5.35;;;2.97;;
12308;SDS011;6217;48.150;17.142;2022-07-23T21:04:20;3.80;;;3.50;;
12308;SDS011;6217;48.150;17.142;2022-07-23T21:08:26;4.35;;;3.47;;
12308;SDS011;6217;48.150;17.142;2022-07-23T21:12:33;6.10;;;3.38;;
12308;SDS011;6217;48.150;17.142;2022-07-23T21:16:39;7.30;;;4.88;;
12308;SDS011;6217;48.150;17.142;2022-07-23T21:20:45;5.20;;;3.22;;
12308;SDS011;6217;48.150;17.142;2022-07-23T21:25:10;4.50;;;3.78;;
12308;SDS011;6217;48.150;17.142;2022-07-23T21:29:18;5.60;;;3.50;;
12308;SDS011;6217;48.150;17.142;2022-07-23T21:33:24;11.45;;;10.35;;
12308;SDS011;6217;48.150;17.142;2022-07-23T21:37:30;4.93;;;3.75;;
12308;SDS011;6217;48.150;17.142;2022-07-23T21:41:36;5.97;;;2.90;;
12308;SDS011;6217;48.150;17.142;2022-07-23T21:45:42;4.00;;;3.45;;
12308;SDS011;6217;48.150;17.142;2022-07-23T21:49:48;7.03;;;3.75;;
12308;SDS011;6217;48.150;17.142;2022-07-23T21:53:55;3.65;;;3.35;;
12308;SDS011;6217;48.150;17.142;2022-07-23T21:58:02;7.93;;;3.63;;
12308;SDS011;6217;48.150;17.142;2022-07-23T22:02:09;7.07;;;3.25;;
12308;SDS011;6217;48.150;17.142;2022-07-23T22:06:15;4.38;;;3.97;;
12308;SDS011;6217;48.150;17.142;2022-07-23T22:10:21;4.07;;;3.45;;
12308;SDS011;6217;48.150;17.142;2022-07-23T22:14:27;5.20;;;4.00;;
12308;SDS011;6217;48.150;17.142;2022-07-23T22:18:34;4.00;;;3.55;;
12308;SDS011;6217;48.150;17.142;2022-07-23T22:22:41;8.07;;;3.67;;
12308;SDS011;6217;48.150;17.142;2022-07-23T22:26:53;6.03;;;4.75;;
12308;SDS011;6217;48.150;17.142;2022-07-23T22:30:59;4.90;;;3.28;;
12308;SDS011;6217;48.150;17.142;2022-07-23T22:35:05;5.20;;;3.58;;
12308;SDS011;6217;48.150;17.142;2022-07-23T22:39:12;4.05;;;3.22;;
12308;SDS011;6217;48.150;17.142;2022-07-23T22:43:18;7.28;;;3.63;;
12308;SDS011;6217;48.150;17.142;2022-07-23T22:47:24;3.83;;;3.53;;
12308;SDS011;6217;48.150;17.142;2022-07-23T22:51:31;6.78;;;3.63;;
12308;SDS011;6217;48.150;17.142;2022-07-23T22:55:37;4.10;;;3.17;;
12308;SDS011;6217;48.150;17.142;2022-07-23T22:59:44;3.38;;;3.08;;
12308;SDS011;6217;48.150;17.142;2022-07-23T23:03:50;5.57;;;3.90;;
12308;SDS011;6217;48.150;17.142;2022-07-23T23:07:56;4.28;;;3.88;;
12308;SDS011;6217;48.150;17.142;2022-07-23T23:12:03;6.95;;;3.70;;
12308;SDS011;6217;48.150;17.142;2022-07-23T23:16:09;5.68;;;4.10;;
12308;SDS011;6217;48.150;17.142;2022-07-23T23:20:15;4.30;;;3.90;;
12308;SDS011;6217;48.150;17.142;2022-07-23T23:24:22;5.80;;;4.25;;
12308;SDS011;6217;48.150;17.142;2022-07-23T23:28:28;4.10;;;3.78;;
12308;SDS011;6217;48.150;17.142;2022-07-23T23:32:34;4.85;;;3.97;;
12308;SDS011;6217;48.150;17.142;2022-07-23T23:36:40;5.20;;;3.38;;
12308;SDS011;6217;48.150;17.142;2022-07-23T23:40:48;5.07;;;3.95;;
12308;SDS011;6217;48.150;17.142;2022-07-23T23:44:54;4.18;;;3.88;;
12308;SDS011;6217;48.150;17.142;2022-07-23T23:49:00;3.33;;;2.92;;
12308;SDS011;6217;48.150;17.142;2022-07-23T23:53:07;4.70;;;2.83;;
12308;SDS011;6217;48.150;17.142;2022-07-23T23:57:13;6.25;;;3.65;;
